Route Details

Aircraft Information
Group: European Fleet
Types: A30F, A31F, B738
Route Data
Distance: 1035nm
Duration: 2h 45m
Origin METAR: LXGB 160020Z AUTO 28014KT 9999 NCD 22/17 Q1012
Dest. METAR: EDDK 152350Z AUTO 13004KT CAVOK 19/15 Q1007 NOSIG
Freight Data
(for Aug 16, 2022)
Load Factor:
56%
Manifested Cargo: 50,390lbs
Financial History
Total Freight: 0lbs
Average Load: 0lbs/flt
Fuel Used: 0lbs
Avg. Fuel Used: 0lbs/flt
Fuel Expense: $0
Avg. Fuel Expense: $0
Avg. Fuel Cost: $0/lbs
Total Gross Income: $0
Pilot Pay: $0
Total Expenses: $0
Total Revenue: $0
Average Revenue: $0

Capitol Logistics 561




LXGB
Gibraltar Airport
Gibraltar, GI
EDDK
Cologne Bonn Airport
Cologne, DE

Activity Log

Date Flight Route Aircraft Duration
No Flights Yet